sensor_id;sensor_type;location;lat;lon;timestamp;pressure;altitude;pressure_sealevel;temperature;humidity
73551;BME280;61816;53.582;10.096;2022-09-30T00:01:31;100419.53;;;9.75;100.00
73551;BME280;61816;53.582;10.096;2022-09-30T00:03:57;100417.19;;;9.88;100.00
73551;BME280;61816;53.582;10.096;2022-09-30T00:06:27;100418.19;;;9.79;100.00
73551;BME280;61816;53.582;10.096;2022-09-30T00:08:54;100418.78;;;9.57;100.00
73551;BME280;61816;53.582;10.096;2022-09-30T00:11:22;100420.47;;;9.58;100.00
73551;BME280;61816;53.582;10.096;2022-09-30T00:13:50;100421.69;;;9.71;100.00
73551;BME280;61816;53.582;10.096;2022-09-30T00:16:17;100426.63;;;9.84;100.00
73551;BME280;61816;53.582;10.096;2022-09-30T00:18:43;100420.53;;;9.74;100.00
73551;BME280;61816;53.582;10.096;2022-09-30T00:21:10;100428.47;;;9.75;100.00
73551;BME280;61816;53.582;10.096;2022-09-30T00:23:36;100413.91;;;9.60;100.00
73551;BME280;61816;53.582;10.096;2022-09-30T00:26:05;100419.31;;;9.60;100.00
73551;BME280;61816;53.582;10.096;2022-09-30T00:28:32;100419.78;;;9.56;100.00
73551;BME280;61816;53.582;10.096;2022-09-30T00:30:59;100413.25;;;9.66;100.00
73551;BME280;61816;53.582;10.096;2022-09-30T00:33:25;100423.41;;;9.72;100.00
73551;BME280;61816;53.582;10.096;2022-09-30T00:35:50;100419.22;;;9.86;100.00
73551;BME280;61816;53.582;10.096;2022-09-30T00:38:15;100423.59;;;9.79;100.00
73551;BME280;61816;53.582;10.096;2022-09-30T00:40:41;100427.63;;;9.75;100.00
73551;BME280;61816;53.582;10.096;2022-09-30T00:43:16;100431.34;;;9.74;100.00
73551;BME280;61816;53.582;10.096;2022-09-30T00:45:56;100429.69;;;9.81;100.00
73551;BME280;61816;53.582;10.096;2022-09-30T00:48:31;100430.03;;;9.86;100.00
73551;BME280;61816;53.582;10.096;2022-09-30T00:51:00;100428.66;;;9.82;100.00
73551;BME280;61816;53.582;10.096;2022-09-30T00:53:34;100423.44;;;9.89;100.00
73551;BME280;61816;53.582;10.096;2022-09-30T00:56:03;100430.25;;;10.01;100.00
73551;BME280;61816;53.582;10.096;2022-09-30T00:58:35;100433.13;;;10.07;100.00
73551;BME280;61816;53.582;10.096;2022-09-30T01:01:02;100432.47;;;10.14;100.00
73551;BME280;61816;53.582;10.096;2022-09-30T01:03:33;100436.19;;;10.13;100.00
73551;BME280;61816;53.582;10.096;2022-09-30T01:06:00;100436.78;;;9.90;100.00
73551;BME280;61816;53.582;10.096;2022-09-30T01:08:27;100436.13;;;9.96;100.00
73551;BME280;61816;53.582;10.096;2022-09-30T01:10:55;100423.31;;;9.98;100.00
73551;BME280;61816;53.582;10.096;2022-09-30T01:13:23;100424.25;;;9.73;100.00
73551;BME280;61816;53.582;10.096;2022-09-30T01:16:05;100424.09;;;9.83;100.00
73551;BME280;61816;53.582;10.096;2022-09-30T01:19:23;100424.19;;;9.65;100.00
73551;BME280;61816;53.582;10.096;2022-09-30T01:25:11;100431.00;;;9.35;100.00
73551;BME280;61816;53.582;10.096;2022-09-30T01:33:33;100438.66;;;9.39;100.00
73551;BME280;61816;53.582;10.096;2022-09-30T01:36:14;100445.84;;;9.31;100.00
73551;BME280;61816;53.582;10.096;2022-09-30T01:38:57;100441.91;;;9.25;100.00
73551;BME280;61816;53.582;10.096;2022-09-30T01:44:34;100459.19;;;9.06;100.00
73551;BME280;61816;53.582;10.096;2022-09-30T01:47:25;100451.56;;;9.02;100.00
73551;BME280;61816;53.582;10.096;2022-09-30T01:50:19;100451.84;;;8.90;100.00
73551;BME280;61816;53.582;10.096;2022-09-30T01:55:54;100454.72;;;8.71;100.00
73551;BME280;61816;53.582;10.096;2022-09-30T02:01:11;100458.72;;;8.67;100.00
73551;BME280;61816;53.582;10.096;2022-09-30T02:03:47;100464.13;;;8.67;100.00
73551;BME280;61816;53.582;10.096;2022-09-30T02:06:20;100464.28;;;8.65;100.00
73551;BME280;61816;53.582;10.096;2022-09-30T02:08:58;100465.75;;;8.60;100.00
73551;BME280;61816;53.582;10.096;2022-09-30T02:11:29;100471.88;;;8.62;100.00
73551;BME280;61816;53.582;10.096;2022-09-30T02:14:19;100465.22;;;8.38;100.00
73551;BME280;61816;53.582;10.096;2022-09-30T02:16:54;100472.31;;;8.39;100.00
73551;BME280;61816;53.582;10.096;2022-09-30T02:19:32;100477.41;;;8.42;100.00
73551;BME280;61816;53.582;10.096;2022-09-30T02:22:05;100473.38;;;8.47;100.00
73551;BME280;61816;53.582;10.096;2022-09-30T02:24:34;100483.09;;;8.39;100.00
73551;BME280;61816;53.582;10.096;2022-09-30T02:27:08;100480.81;;;8.45;100.00
73551;BME280;61816;53.582;10.096;2022-09-30T02:29:39;100477.09;;;8.46;100.00
73551;BME280;61816;53.582;10.096;2022-09-30T02:32:21;100480.88;;;8.53;100.00
73551;BME280;61816;53.582;10.096;2022-09-30T02:34:52;100482.50;;;8.46;100.00
73551;BME280;61816;53.582;10.096;2022-09-30T02:37:30;100489.28;;;8.50;100.00
73551;BME280;61816;53.582;10.096;2022-09-30T02:40:13;100496.13;;;8.44;100.00
73551;BME280;61816;53.582;10.096;2022-09-30T02:42:42;100489.44;;;8.48;100.00
73551;BME280;61816;53.582;10.096;2022-09-30T02:45:13;100490.13;;;8.50;100.00
73551;BME280;61816;53.582;10.096;2022-09-30T02:58:19;100496.75;;;8.56;100.00
73551;BME280;61816;53.582;10.096;2022-09-30T03:00:46;100505.47;;;8.50;100.00
73551;BME280;61816;53.582;10.096;2022-09-30T03:03:26;100496.38;;;8.51;100.00
73551;BME280;61816;53.582;10.096;2022-09-30T03:05:52;100498.06;;;8.52;100.00
73551;BME280;61816;53.582;10.096;2022-09-30T03:08:17;100495.38;;;8.52;100.00
73551;BME280;61816;53.582;10.096;2022-09-30T03:10:44;100492.72;;;8.60;100.00
73551;BME280;61816;53.582;10.096;2022-09-30T03:13:24;100492.13;;;8.66;100.00
73551;BME280;61816;53.582;10.096;2022-09-30T03:18:48;100492.94;;;8.84;100.00
73551;BME280;61816;53.582;10.096;2022-09-30T03:21:48;100497.25;;;9.13;100.00
73551;BME280;61816;53.582;10.096;2022-09-30T03:27:08;100514.81;;;9.17;100.00
73551;BME280;61816;53.582;10.096;2022-09-30T03:29:42;100514.38;;;9.30;100.00
73551;BME280;61816;53.582;10.096;2022-09-30T03:41:03;100514.59;;;9.10;100.00
73551;BME280;61816;53.582;10.096;2022-09-30T03:43:40;100512.06;;;9.09;100.00
73551;BME280;61816;53.582;10.096;2022-09-30T03:46:20;100509.41;;;9.17;100.00
73551;BME280;61816;53.582;10.096;2022-09-30T03:48:49;100516.06;;;9.31;100.00
73551;BME280;61816;53.582;10.096;2022-09-30T03:51:16;100520.34;;;9.33;100.00
73551;BME280;61816;53.582;10.096;2022-09-30T03:53:42;100519.31;;;9.34;100.00
73551;BME280;61816;53.582;10.096;2022-09-30T03:56:11;100520.34;;;9.33;100.00
73551;BME280;61816;53.582;10.096;2022-09-30T03:58:40;100527.09;;;9.37;100.00
73551;BME280;61816;53.582;10.096;2022-09-30T04:01:06;100526.28;;;9.19;100.00
73551;BME280;61816;53.582;10.096;2022-09-30T04:03:31;100536.00;;;9.30;100.00
73551;BME280;61816;53.582;10.096;2022-09-30T04:05:57;100532.78;;;9.26;100.00
73551;BME280;61816;53.582;10.096;2022-09-30T04:08:22;100539.22;;;9.07;100.00
73551;BME280;61816;53.582;10.096;2022-09-30T04:10:48;100542.94;;;8.88;100.00
73551;BME280;61816;53.582;10.096;2022-09-30T04:13:13;100539.69;;;8.67;100.00
73551;BME280;61816;53.582;10.096;2022-09-30T04:15:39;100535.53;;;8.55;100.00
73551;BME280;61816;53.582;10.096;2022-09-30T04:18:05;100540.38;;;8.51;100.00
73551;BME280;61816;53.582;10.096;2022-09-30T04:20:31;100551.50;;;8.48;100.00
73551;BME280;61816;53.582;10.096;2022-09-30T04:22:58;100555.25;;;8.37;100.00
73551;BME280;61816;53.582;10.096;2022-09-30T04:25:25;100555.81;;;8.31;100.00
73551;BME280;61816;53.582;10.096;2022-09-30T04:27:50;100551.56;;;8.38;100.00
73551;BME280;61816;53.582;10.096;2022-09-30T04:30:16;100552.94;;;8.42;100.00
73551;BME280;61816;53.582;10.096;2022-09-30T04:32:43;100554.66;;;8.43;100.00
73551;BME280;61816;53.582;10.096;2022-09-30T04:35:12;100562.53;;;8.55;100.00
73551;BME280;61816;53.582;10.096;2022-09-30T04:37:44;100567.00;;;8.64;100.00
73551;BME280;61816;53.582;10.096;2022-09-30T04:40:12;100560.50;;;8.57;100.00
73551;BME280;61816;53.582;10.096;2022-09-30T04:42:38;100562.75;;;8.61;100.00
73551;BME280;61816;53.582;10.096;2022-09-30T04:45:06;100569.91;;;8.53;100.00
73551;BME280;61816;53.582;10.096;2022-09-30T04:47:31;100569.28;;;8.59;100.00
73551;BME280;61816;53.582;10.096;2022-09-30T04:49:57;100569.66;;;8.46;100.00
73551;BME280;61816;53.582;10.096;2022-09-30T04:52:22;100561.72;;;8.45;100.00
73551;BME280;61816;53.582;10.096;2022-09-30T04:54:48;100575.03;;;8.56;100.00
73551;BME280;61816;53.582;10.096;2022-09-30T04:57:13;100584.28;;;8.71;100.00
73551;BME280;61816;53.582;10.096;2022-09-30T04:59:39;100588.50;;;8.74;100.00
73551;BME280;61816;53.582;10.096;2022-09-30T05:02:05;100590.19;;;8.57;100.00
73551;BME280;61816;53.582;10.096;2022-09-30T05:04:30;100593.13;;;8.63;100.00
73551;BME280;61816;53.582;10.096;2022-09-30T05:06:58;100587.66;;;8.73;100.00
73551;BME280;61816;53.582;10.096;2022-09-30T05:09:24;100592.16;;;8.82;100.00
73551;BME280;61816;53.582;10.096;2022-09-30T05:11:50;100594.41;;;8.87;100.00
73551;BME280;61816;53.582;10.096;2022-09-30T05:14:16;100594.22;;;8.70;100.00
73551;BME280;61816;53.582;10.096;2022-09-30T05:16:42;100600.06;;;8.66;100.00
73551;BME280;61816;53.582;10.096;2022-09-30T05:19:07;100603.16;;;8.71;100.00
73551;BME280;61816;53.582;10.096;2022-09-30T05:21:32;100608.16;;;8.66;100.00
73551;BME280;61816;53.582;10.096;2022-09-30T05:23:58;100608.03;;;8.67;100.00
73551;BME280;61816;53.582;10.096;2022-09-30T05:26:23;100607.88;;;8.69;100.00
73551;BME280;61816;53.582;10.096;2022-09-30T05:28:48;100606.00;;;8.52;100.00
73551;BME280;61816;53.582;10.096;2022-09-30T05:31:14;100611.88;;;8.65;100.00
73551;BME280;61816;53.582;10.096;2022-09-30T05:33:39;100604.78;;;8.64;100.00
73551;BME280;61816;53.582;10.096;2022-09-30T05:36:07;100606.78;;;8.62;100.00
73551;BME280;61816;53.582;10.096;2022-09-30T05:38:33;100613.19;;;8.61;100.00
73551;BME280;61816;53.582;10.096;2022-09-30T05:41:06;100617.94;;;8.49;100.00
73551;BME280;61816;53.582;10.096;2022-09-30T05:43:32;100620.88;;;8.28;100.00
73551;BME280;61816;53.582;10.096;2022-09-30T05:45:57;100620.06;;;8.18;100.00
73551;BME280;61816;53.582;10.096;2022-09-30T05:48:24;100622.59;;;8.20;100.00
73551;BME280;61816;53.582;10.096;2022-09-30T05:50:54;100629.94;;;8.27;100.00
73551;BME280;61816;53.582;10.096;2022-09-30T05:53:20;100630.00;;;8.18;100.00
73551;BME280;61816;53.582;10.096;2022-09-30T05:55:46;100626.47;;;8.17;100.00
73551;BME280;61816;53.582;10.096;2022-09-30T05:58:13;100637.72;;;8.03;100.00
73551;BME280;61816;53.582;10.096;2022-09-30T06:00:40;100641.63;;;8.18;100.00
73551;BME280;61816;53.582;10.096;2022-09-30T06:03:06;100632.03;;;8.06;100.00
73551;BME280;61816;53.582;10.096;2022-09-30T06:05:32;100640.28;;;8.04;100.00
73551;BME280;61816;53.582;10.096;2022-09-30T06:07:57;100632.34;;;8.03;100.00
73551;BME280;61816;53.582;10.096;2022-09-30T06:10:23;100631.75;;;8.09;100.00
73551;BME280;61816;53.582;10.096;2022-09-30T06:12:48;100622.75;;;8.18;100.00
73551;BME280;61816;53.582;10.096;2022-09-30T06:15:14;100634.22;;;8.20;100.00
73551;BME280;61816;53.582;10.096;2022-09-30T06:17:39;100630.78;;;8.28;100.00
73551;BME280;61816;53.582;10.096;2022-09-30T06:20:10;100639.38;;;8.13;100.00
73551;BME280;61816;53.582;10.096;2022-09-30T06:22:36;100642.13;;;8.31;100.00
73551;BME280;61816;53.582;10.096;2022-09-30T06:25:03;100639.28;;;8.42;100.00
73551;BME280;61816;53.582;10.096;2022-09-30T06:27:31;100644.09;;;8.49;100.00
73551;BME280;61816;53.582;10.096;2022-09-30T06:29:57;100647.28;;;8.62;100.00
73551;BME280;61816;53.582;10.096;2022-09-30T06:32:22;100645.09;;;8.65;100.00
73551;BME280;61816;53.582;10.096;2022-09-30T06:34:50;100654.16;;;8.74;100.00
73551;BME280;61816;53.582;10.096;2022-09-30T06:37:15;100644.09;;;8.94;100.00
73551;BME280;61816;53.582;10.096;2022-09-30T06:39:43;100650.47;;;8.75;100.00
73551;BME280;61816;53.582;10.096;2022-09-30T06:42:08;100646.84;;;8.84;100.00
73551;BME280;61816;53.582;10.096;2022-09-30T06:44:35;100646.63;;;8.95;100.00
73551;BME280;61816;53.582;10.096;2022-09-30T06:47:01;100644.59;;;8.97;100.00
73551;BME280;61816;53.582;10.096;2022-09-30T06:49:26;100643.84;;;8.87;100.00
73551;BME280;61816;53.582;10.096;2022-09-30T06:51:52;100653.38;;;9.00;100.00
73551;BME280;61816;53.582;10.096;2022-09-30T06:54:18;100650.94;;;8.88;100.00
73551;BME280;61816;53.582;10.096;2022-09-30T06:56:45;100650.63;;;8.91;100.00
73551;BME280;61816;53.582;10.096;2022-09-30T06:59:11;100652.91;;;8.86;100.00
73551;BME280;61816;53.582;10.096;2022-09-30T07:01:36;100653.09;;;9.03;100.00
73551;BME280;61816;53.582;10.096;2022-09-30T07:04:03;100659.59;;;9.10;100.00
73551;BME280;61816;53.582;10.096;2022-09-30T07:06:33;100651.88;;;9.15;100.00
73551;BME280;61816;53.582;10.096;2022-09-30T07:08:59;100658.34;;;9.22;100.00
73551;BME280;61816;53.582;10.096;2022-09-30T07:11:24;100658.25;;;9.32;100.00
73551;BME280;61816;53.582;10.096;2022-09-30T07:13:50;100667.38;;;9.48;100.00
73551;BME280;61816;53.582;10.096;2022-09-30T07:16:17;100672.78;;;9.48;100.00
73551;BME280;61816;53.582;10.096;2022-09-30T07:18:44;100665.09;;;9.62;100.00
73551;BME280;61816;53.582;10.096;2022-09-30T07:21:14;100673.75;;;9.65;100.00
73551;BME280;61816;53.582;10.096;2022-09-30T07:23:41;100674.53;;;9.58;100.00
73551;BME280;61816;53.582;10.096;2022-09-30T07:26:15;100671.56;;;9.69;100.00
73551;BME280;61816;53.582;10.096;2022-09-30T07:28:41;100674.31;;;9.77;100.00
73551;BME280;61816;53.582;10.096;2022-09-30T07:31:11;100679.44;;;9.80;100.00
73551;BME280;61816;53.582;10.096;2022-09-30T07:33:37;100673.63;;;9.93;100.00
73551;BME280;61816;53.582;10.096;2022-09-30T07:36:04;100667.25;;;10.02;100.00
73551;BME280;61816;53.582;10.096;2022-09-30T07:38:34;100660.13;;;10.27;100.00
73551;BME280;61816;53.582;10.096;2022-09-30T07:41:12;100668.94;;;10.29;100.00
73551;BME280;61816;53.582;10.096;2022-09-30T07:43:38;100673.78;;;10.51;100.00
73551;BME280;61816;53.582;10.096;2022-09-30T07:46:05;100672.16;;;10.67;100.00
73551;BME280;61816;53.582;10.096;2022-09-30T07:48:32;100672.59;;;11.12;98.82
73551;BME280;61816;53.582;10.096;2022-09-30T07:51:12;100671.94;;;11.19;97.02
73551;BME280;61816;53.582;10.096;2022-09-30T07:53:45;100672.97;;;11.09;98.38
73551;BME280;61816;53.582;10.096;2022-09-30T07:56:12;100675.19;;;11.30;97.18
73551;BME280;61816;53.582;10.096;2022-09-30T07:58:38;100674.66;;;11.10;97.65
73551;BME280;61816;53.582;10.096;2022-09-30T08:01:05;100689.53;;;11.06;98.15
73551;BME280;61816;53.582;10.096;2022-09-30T08:03:32;100689.84;;;10.95;99.03
73551;BME280;61816;53.582;10.096;2022-09-30T08:06:06;100690.13;;;11.43;97.42
73551;BME280;61816;53.582;10.096;2022-09-30T08:08:32;100679.75;;;11.30;96.61
73551;BME280;61816;53.582;10.096;2022-09-30T08:10:58;100694.34;;;11.37;96.56
73551;BME280;61816;53.582;10.096;2022-09-30T08:13:24;100687.22;;;11.60;96.06
73551;BME280;61816;53.582;10.096;2022-09-30T08:15:49;100694.91;;;11.81;95.97
73551;BME280;61816;53.582;10.096;2022-09-30T08:18:15;100702.50;;;11.94;93.63
73551;BME280;61816;53.582;10.096;2022-09-30T08:20:40;100692.16;;;11.89;95.17
73551;BME280;61816;53.582;10.096;2022-09-30T08:23:05;100699.44;;;12.13;94.80
73551;BME280;61816;53.582;10.096;2022-09-30T08:25:31;100692.66;;;12.09;94.02
73551;BME280;61816;53.582;10.096;2022-09-30T08:27:56;100686.81;;;12.29;94.53
73551;BME280;61816;53.582;10.096;2022-09-30T08:30:22;100685.78;;;12.38;92.28
73551;BME280;61816;53.582;10.096;2022-09-30T08:32:47;100696.94;;;12.51;91.70
73551;BME280;61816;53.582;10.096;2022-09-30T08:35:12;100694.53;;;12.56;91.73
73551;BME280;61816;53.582;10.096;2022-09-30T08:37:38;100692.84;;;12.55;93.00
73551;BME280;61816;53.582;10.096;2022-09-30T08:40:03;100693.84;;;12.62;91.71
73551;BME280;61816;53.582;10.096;2022-09-30T08:48:31;100709.13;;;13.34;91.22
73551;BME280;61816;53.582;10.096;2022-09-30T08:51:21;100708.88;;;13.20;88.16
73551;BME280;61816;53.582;10.096;2022-09-30T08:53:49;100700.91;;;12.80;89.30
73551;BME280;61816;53.582;10.096;2022-09-30T08:56:27;100707.84;;;13.13;88.82
73551;BME280;61816;53.582;10.096;2022-09-30T08:58:57;100699.69;;;13.21;90.18
73551;BME280;61816;53.582;10.096;2022-09-30T09:01:35;100711.53;;;13.28;89.60
73551;BME280;61816;53.582;10.096;2022-09-30T09:04:03;100705.38;;;13.35;89.10
73551;BME280;61816;53.582;10.096;2022-09-30T09:07:06;100699.97;;;13.72;87.71
73551;BME280;61816;53.582;10.096;2022-09-30T09:18:24;100709.06;;;14.55;81.12
73551;BME280;61816;53.582;10.096;2022-09-30T09:21:01;100711.63;;;13.81;83.57
73551;BME280;61816;53.582;10.096;2022-09-30T09:23:31;100712.56;;;14.11;80.16
73551;BME280;61816;53.582;10.096;2022-09-30T09:25:57;100705.63;;;14.23;81.23
73551;BME280;61816;53.582;10.096;2022-09-30T09:28:33;100710.28;;;14.52;79.63
73551;BME280;61816;53.582;10.096;2022-09-30T09:31:02;100705.09;;;14.43;80.20
73551;BME280;61816;53.582;10.096;2022-09-30T09:33:30;100711.41;;;14.58;78.18
73551;BME280;61816;53.582;10.096;2022-09-30T09:36:18;100709.34;;;14.75;79.19
73551;BME280;61816;53.582;10.096;2022-09-30T09:44:29;100721.44;;;14.87;77.07
73551;BME280;61816;53.582;10.096;2022-09-30T09:47:03;100718.63;;;14.80;78.20
73551;BME280;61816;53.582;10.096;2022-09-30T09:52:07;100715.31;;;14.40;79.69
73551;BME280;61816;53.582;10.096;2022-09-30T09:54:52;100715.97;;;14.43;78.69
73551;BME280;61816;53.582;10.096;2022-09-30T09:57:22;100717.19;;;14.40;79.57
73551;BME280;61816;53.582;10.096;2022-09-30T10:00:04;100719.97;;;14.55;79.98
73551;BME280;61816;53.582;10.096;2022-09-30T10:03:00;100721.72;;;14.77;79.68
73551;BME280;61816;53.582;10.096;2022-09-30T10:05:27;100720.94;;;14.98;78.85
73551;BME280;61816;53.582;10.096;2022-09-30T10:08:19;100729.13;;;15.13;77.80
73551;BME280;61816;53.582;10.096;2022-09-30T10:10:48;100721.41;;;15.02;77.98
73551;BME280;61816;53.582;10.096;2022-09-30T10:13:22;100731.41;;;14.95;76.99
73551;BME280;61816;53.582;10.096;2022-09-30T10:15:50;100734.53;;;14.62;78.38
73551;BME280;61816;53.582;10.096;2022-09-30T10:18:20;100724.47;;;14.77;79.07
73551;BME280;61816;53.582;10.096;2022-09-30T10:20:53;100736.09;;;14.42;79.84
73551;BME280;61816;53.582;10.096;2022-09-30T10:23:28;100738.13;;;14.39;79.59
73551;BME280;61816;53.582;10.096;2022-09-30T10:25:56;100728.88;;;14.78;79.25
73551;BME280;61816;53.582;10.096;2022-09-30T10:28:23;100728.75;;;14.86;77.20
73551;BME280;61816;53.582;10.096;2022-09-30T10:31:10;100728.66;;;14.80;77.43
73551;BME280;61816;53.582;10.096;2022-09-30T10:33:46;100732.28;;;14.80;77.71
73551;BME280;61816;53.582;10.096;2022-09-30T10:36:20;100742.31;;;14.95;76.95
73551;BME280;61816;53.582;10.096;2022-09-30T10:38:52;100743.72;;;14.90;77.23
73551;BME280;61816;53.582;10.096;2022-09-30T10:41:23;100739.47;;;15.03;77.67
73551;BME280;61816;53.582;10.096;2022-09-30T10:43:52;100738.63;;;15.38;76.95
73551;BME280;61816;53.582;10.096;2022-09-30T10:46:28;100730.69;;;15.43;76.54
73551;BME280;61816;53.582;10.096;2022-09-30T10:48:55;100728.31;;;15.19;75.50
73551;BME280;61816;53.582;10.096;2022-09-30T10:51:27;100727.00;;;15.51;73.82
73551;BME280;61816;53.582;10.096;2022-09-30T10:53:54;100729.31;;;15.69;74.54
73551;BME280;61816;53.582;10.096;2022-09-30T10:56:40;100734.00;;;15.75;74.08
73551;BME280;61816;53.582;10.096;2022-09-30T10:59:13;100723.91;;;15.76;72.52
73551;BME280;61816;53.582;10.096;2022-09-30T11:01:50;100721.34;;;15.67;72.01
73551;BME280;61816;53.582;10.096;2022-09-30T11:04:34;100724.31;;;16.22;71.25
73551;BME280;61816;53.582;10.096;2022-09-30T11:07:26;100725.16;;;16.85;69.40
73551;BME280;61816;53.582;10.096;2022-09-30T11:09:59;100720.34;;;16.59;69.35
73551;BME280;61816;53.582;10.096;2022-09-30T11:15:08;100734.66;;;15.98;69.80
73551;BME280;61816;53.582;10.096;2022-09-30T11:17:58;100732.75;;;16.27;69.31
73551;BME280;61816;53.582;10.096;2022-09-30T11:20:31;100721.31;;;16.45;69.01
73551;BME280;61816;53.582;10.096;2022-09-30T11:23:19;100728.94;;;15.72;70.16
73551;BME280;61816;53.582;10.096;2022-09-30T11:25:53;100721.47;;;15.81;70.96
73551;BME280;61816;53.582;10.096;2022-09-30T11:28:34;100720.75;;;15.57;69.96
73551;BME280;61816;53.582;10.096;2022-09-30T11:31:18;100720.50;;;15.67;70.36
73551;BME280;61816;53.582;10.096;2022-09-30T11:39:29;100711.97;;;15.19;70.31
73551;BME280;61816;53.582;10.096;2022-09-30T11:42:46;100726.81;;;14.80;71.72
73551;BME280;61816;53.582;10.096;2022-09-30T11:44:45;100716.25;;;15.07;71.65
73551;BME280;61816;53.582;10.096;2022-09-30T11:54:14;100703.53;;;15.14;69.14
73551;BME280;61816;53.582;10.096;2022-09-30T11:56:27;100711.34;;;15.38;68.49
73551;BME280;61816;53.582;10.096;2022-09-30T11:58:59;100708.28;;;15.27;66.72
73551;BME280;61816;53.582;10.096;2022-09-30T12:01:36;100710.06;;;15.56;66.04
73551;BME280;61816;53.582;10.096;2022-09-30T12:04:15;100711.94;;;15.77;65.97
73551;BME280;61816;53.582;10.096;2022-09-30T12:06:52;100703.75;;;16.26;64.41
73551;BME280;61816;53.582;10.096;2022-09-30T12:09:36;100705.66;;;15.97;65.77
73551;BME280;61816;53.582;10.096;2022-09-30T12:12:06;100711.75;;;15.99;65.60
73551;BME280;61816;53.582;10.096;2022-09-30T12:14:39;100711.78;;;15.78;67.38
73551;BME280;61816;53.582;10.096;2022-09-30T12:17:40;100711.94;;;16.61;66.18
73551;BME280;61816;53.582;10.096;2022-09-30T12:20:34;100710.47;;;16.93;62.36
73551;BME280;61816;53.582;10.096;2022-09-30T12:23:41;100715.91;;;16.23;64.31
73551;BME280;61816;53.582;10.096;2022-09-30T12:26:10;100720.03;;;16.13;65.80
73551;BME280;61816;53.582;10.096;2022-09-30T12:39:39;100721.00;;;15.77;65.26
73551;BME280;61816;53.582;10.096;2022-09-30T12:47:59;100712.41;;;15.59;66.83
73551;BME280;61816;53.582;10.096;2022-09-30T12:50:34;100717.25;;;15.78;66.94
73551;BME280;61816;53.582;10.096;2022-09-30T12:53:31;100707.34;;;15.98;65.34
73551;BME280;61816;53.582;10.096;2022-09-30T12:56:19;100698.41;;;16.46;62.11
73551;BME280;61816;53.582;10.096;2022-09-30T12:58:50;100706.72;;;16.66;60.89
73551;BME280;61816;53.582;10.096;2022-09-30T13:01:27;100711.78;;;16.34;62.24
73551;BME280;61816;53.582;10.096;2022-09-30T13:09:22;100714.47;;;15.99;62.73
73551;BME280;61816;53.582;10.096;2022-09-30T13:19:51;100695.31;;;16.90;59.34
73551;BME280;61816;53.582;10.096;2022-09-30T13:40:50;100698.03;;;16.55;61.10
73551;BME280;61816;53.582;10.096;2022-09-30T13:43:38;100694.03;;;16.86;59.52
73551;BME280;61816;53.582;10.096;2022-09-30T13:48:53;100691.91;;;16.88;57.99
73551;BME280;61816;53.582;10.096;2022-09-30T13:51:23;100697.66;;;16.59;59.20
73551;BME280;61816;53.582;10.096;2022-09-30T13:53:53;100689.66;;;15.94;60.33
73551;BME280;61816;53.582;10.096;2022-09-30T13:56:32;100694.72;;;15.97;60.01
73551;BME280;61816;53.582;10.096;2022-09-30T14:07:17;100681.91;;;16.26;60.86
73551;BME280;61816;53.582;10.096;2022-09-30T14:10:09;100698.63;;;16.16;59.57
73551;BME280;61816;53.582;10.096;2022-09-30T14:21:23;100681.75;;;16.06;61.70
73551;BME280;61816;53.582;10.096;2022-09-30T14:24:21;100679.66;;;16.08;62.28
73551;BME280;61816;53.582;10.096;2022-09-30T14:31:54;100672.31;;;16.37;60.57
73551;BME280;61816;53.582;10.096;2022-09-30T14:34:21;100669.63;;;16.15;61.13
73551;BME280;61816;53.582;10.096;2022-09-30T14:36:50;100678.22;;;15.84;62.15
73551;BME280;61816;53.582;10.096;2022-09-30T14:39:26;100678.53;;;16.24;61.75
73551;BME280;61816;53.582;10.096;2022-09-30T14:41:55;100671.06;;;16.39;60.13
73551;BME280;61816;53.582;10.096;2022-09-30T14:44:24;100686.28;;;16.62;59.52
73551;BME280;61816;53.582;10.096;2022-09-30T14:46:51;100665.88;;;16.92;59.79
73551;BME280;61816;53.582;10.096;2022-09-30T14:49:24;100666.53;;;17.07;60.01
73551;BME280;61816;53.582;10.096;2022-09-30T14:51:58;100674.38;;;17.24;59.99
73551;BME280;61816;53.582;10.096;2022-09-30T14:54:28;100668.94;;;17.37;59.34
73551;BME280;61816;53.582;10.096;2022-09-30T14:56:56;100665.91;;;17.05;59.95
73551;BME280;61816;53.582;10.096;2022-09-30T14:59:26;100659.66;;;17.25;59.55
73551;BME280;61816;53.582;10.096;2022-09-30T15:01:56;100662.19;;;17.33;59.70
73551;BME280;61816;53.582;10.096;2022-09-30T15:04:25;100653.78;;;17.28;60.28
73551;BME280;61816;53.582;10.096;2022-09-30T15:06:52;100656.72;;;17.33;59.28
73551;BME280;61816;53.582;10.096;2022-09-30T15:09:26;100653.94;;;17.20;59.91
73551;BME280;61816;53.582;10.096;2022-09-30T15:11:53;100659.63;;;17.12;59.81
73551;BME280;61816;53.582;10.096;2022-09-30T15:14:22;100662.16;;;17.20;60.00
73551;BME280;61816;53.582;10.096;2022-09-30T15:16:53;100659.59;;;17.05;60.25
73551;BME280;61816;53.582;10.096;2022-09-30T15:19:42;100664.63;;;17.01;61.04
73551;BME280;61816;53.582;10.096;2022-09-30T15:22:19;100662.00;;;17.34;60.04
73551;BME280;61816;53.582;10.096;2022-09-30T15:24:46;100664.84;;;17.06;59.63
73551;BME280;61816;53.582;10.096;2022-09-30T15:27:31;100661.56;;;16.70;59.85
73551;BME280;61816;53.582;10.096;2022-09-30T15:32:43;100667.31;;;16.47;60.93
73551;BME280;61816;53.582;10.096;2022-09-30T15:35:16;100674.91;;;16.51;60.64
73551;BME280;61816;53.582;10.096;2022-09-30T15:37:46;100667.34;;;16.53;61.98
73551;BME280;61816;53.582;10.096;2022-09-30T15:40:14;100669.91;;;16.62;60.96